Klin, Russia
Current Conditions -  °F | °C
As of 9:00 PM on Wednesday 28 Jan 2015 (Local Time) from UUEE Reporting Station
Overcast Overcast  
Wind Chill: 13°   Ceiling: 800
Heat Index: 23°   Visibility: 5mi
Dew Point: 21°   Wind: 9mph
Humidity: 93%   Direction: 170°S
Pressure: 29.83"   Gusts: NA
Location:  56.34°N, 36.7°E
Report Text: UUEE 281800Z 17004MPS 8000 OVC008 M05/M06 Q1010 7529014525290145 NOSIG
Loading
Personal Weather Stations






























Interactive Weather Map New forecast layout! Learn more

10-Day Weather Forecast

Advertisements
Track Severe Weather on mobile